Time;durP1;ratioP1;P1;durP2;ratioP2;P2;SDS_P1;SDS_P2;PMS_P1;PMS_P2;Temp;Humidity;BMP_temperature;BMP_pressure;BME280_temperature;BME280_humidity;BME280_pressure;Samples;Min_cycle;Max_cycle;Signal;HPM_P1;HPM_P2
2022/01/08 00:01:25;;;;;;;5.03;4.63;;;;;;;;;;5073890;28;20203;-63
2022/01/08 00:03:51;;;;;;;5.60;4.57;;;;;;;;;;5072027;28;20258;-66
2022/01/08 00:06:17;;;;;;;5.27;4.63;;;;;;;;;;5074059;28;20205;-66
2022/01/08 00:08:44;;;;;;;5.13;4.73;;;;;;;;;;5074040;28;20481;-66
2022/01/08 00:11:17;;;;;;;5.43;4.67;;;;;;;;;;5073146;28;20538;-65
2022/01/08 00:13:43;;;;;;;6.17;5.57;;;;;;;;;;5073781;28;20560;-65
2022/01/08 00:16:09;;;;;;;5.60;4.80;;;;;;;;;;5073779;28;21208;-64
2022/01/08 00:18:35;;;;;;;5.97;5.37;;;;;;;;;;5073483;28;20200;-66
2022/01/08 00:21:01;;;;;;;5.77;5.27;;;;;;;;;;5073625;28;20738;-65
2022/01/08 00:23:27;;;;;;;6.10;5.50;;;;;;;;;;5073435;28;20513;-65
2022/01/08 00:25:53;;;;;;;5.73;5.23;;;;;;;;;;5073148;28;20434;-66
2022/01/08 00:28:20;;;;;;;6.23;5.63;;;;;;;;;;5073298;28;20847;-67
2022/01/08 00:30:48;;;;;;;5.93;5.33;;;;;;;;;;5073366;28;20438;-68
2022/01/08 00:33:14;;;;;;;7.43;5.70;;;;;;;;;;5073145;28;20826;-70
2022/01/08 00:35:40;;;;;;;5.93;5.37;;;;;;;;;;5073238;28;20508;-68
2022/01/08 00:38:05;;;;;;;6.23;5.63;;;;;;;;;;5073182;28;20276;-66
2022/01/08 00:40:31;;;;;;;7.00;6.10;;;;;;;;;;5072902;28;20195;-72
2022/01/08 00:42:58;;;;;;;7.00;6.30;;;;;;;;;;5073321;28;20650;-72
2022/01/08 00:45:25;;;;;;;7.23;6.53;;;;;;;;;;5073040;28;20200;-72
2022/01/08 00:47:51;;;;;;;7.20;6.50;;;;;;;;;;5073125;28;20442;-69
2022/01/08 00:50:18;;;;;;;7.67;6.83;;;;;;;;;;5073090;28;20889;-66
2022/01/08 00:52:44;;;;;;;7.03;6.33;;;;;;;;;;5072526;28;20987;-67
2022/01/08 00:55:11;;;;;;;8.93;6.67;;;;;;;;;;5072013;28;20984;-68
2022/01/08 00:57:37;;;;;;;7.97;7.13;;;;;;;;;;5072711;28;20431;-67
2022/01/08 01:00:04;;;;;;;8.17;6.90;;;;;;;;;;5073073;28;20426;-67
2022/01/08 01:02:31;;;;;;;10.37;7.30;;;;;;;;;;5072668;28;20437;-68
2022/01/08 01:04:57;;;;;;;10.97;8.17;;;;;;;;;;5072897;28;20817;-67
2022/01/08 01:07:23;;;;;;;8.50;7.70;;;;;;;;;;5072679;28;20956;-67
2022/01/08 01:09:50;;;;;;;11.30;8.80;;;;;;;;;;5072646;28;20203;-68
2022/01/08 01:12:16;;;;;;;10.07;8.23;;;;;;;;;;5072460;28;21003;-68
2022/01/08 01:14:42;;;;;;;10.00;8.07;;;;;;;;;;5072608;28;20434;-68
2022/01/08 01:17:08;;;;;;;10.40;8.43;;;;;;;;;;5072580;28;20191;-68
2022/01/08 01:19:36;;;;;;;10.07;9.00;;;;;;;;;;5072568;28;20223;-67
2022/01/08 01:22:03;;;;;;;9.53;8.43;;;;;;;;;;5072594;28;20191;-68
2022/01/08 01:24:30;;;;;;;10.23;8.60;;;;;;;;;;5072388;28;20433;-67
2022/01/08 01:27:22;;;;;;;9.80;8.80;;;;;;;;;;5072416;28;20445;-68
2022/01/08 01:29:59;;;;;;;9.97;8.77;;;;;;;;;;5072261;28;20438;-68
2022/01/08 01:48:59;;;;;;;10.97;9.87;;;;;;;;;;5071865;28;20413;-67
2022/01/08 01:51:26;;;;;;;12.90;10.43;;;;;;;;;;5071905;28;21073;-66
2022/01/08 01:53:52;;;;;;;12.00;10.80;;;;;;;;;;5071911;28;20227;-67
2022/01/08 01:56:19;;;;;;;12.70;10.10;;;;;;;;;;5072087;28;20889;-66
2022/01/08 01:58:45;;;;;;;11.67;9.83;;;;;;;;;;5071885;28;20472;-65
2022/01/08 02:01:11;;;;;;;10.63;9.53;;;;;;;;;;5071993;28;20446;-66
2022/01/08 02:03:37;;;;;;;13.43;9.70;;;;;;;;;;5071834;28;20467;-66
2022/01/08 02:06:03;;;;;;;10.73;9.63;;;;;;;;;;5071907;28;20218;-65
2022/01/08 02:08:30;;;;;;;11.70;9.77;;;;;;;;;;5071833;28;20437;-65
2022/01/08 02:10:56;;;;;;;10.57;8.97;;;;;;;;;;5071697;28;20469;-65
2022/01/08 02:13:23;;;;;;;11.90;10.03;;;;;;;;;;5071731;28;20484;-65
2022/01/08 02:15:54;;;;;;;11.10;9.33;;;;;;;;;;5071767;28;20521;-65
2022/01/08 02:18:20;;;;;;;12.40;9.33;;;;;;;;;;5071923;28;20438;-66
2022/01/08 02:20:47;;;;;;;13.70;10.00;;;;;;;;;;5071793;28;20461;-66
2022/01/08 02:23:14;;;;;;;15.73;10.53;;;;;;;;;;5071785;28;20426;-64
2022/01/08 02:25:39;;;;;;;11.23;9.53;;;;;;;;;;5071550;28;20445;-66
2022/01/08 02:28:06;;;;;;;11.13;9.60;;;;;;;;;;5071704;28;20438;-65
2022/01/08 02:30:32;;;;;;;11.00;9.50;;;;;;;;;;5071827;28;20199;-65
2022/01/08 02:32:58;;;;;;;14.70;10.00;;;;;;;;;;5071533;28;20485;-66
2022/01/08 02:35:24;;;;;;;12.70;9.73;;;;;;;;;;5071710;28;20487;-66
2022/01/08 02:37:52;;;;;;;12.83;10.33;;;;;;;;;;5071406;28;20192;-66
2022/01/08 02:40:19;;;;;;;11.20;9.87;;;;;;;;;;5071454;28;20433;-65
2022/01/08 02:42:51;;;;;;;11.83;10.00;;;;;;;;;;5071251;28;20491;-66
2022/01/08 02:45:17;;;;;;;12.23;9.83;;;;;;;;;;5071685;28;20430;-65
2022/01/08 02:47:43;;;;;;;11.83;9.60;;;;;;;;;;5071265;28;20442;-66
2022/01/08 02:50:10;;;;;;;13.50;10.13;;;;;;;;;;5071360;28;20430;-66
2022/01/08 02:52:39;;;;;;;12.57;10.27;;;;;;;;;;5071369;28;20219;-66
2022/01/08 02:55:08;;;;;;;13.33;10.73;;;;;;;;;;5071180;28;20526;-67
2022/01/08 02:57:34;;;;;;;13.73;10.47;;;;;;;;;;5071410;28;20499;-66
2022/01/08 03:00:00;;;;;;;12.07;10.53;;;;;;;;;;5071334;28;20434;-66
2022/01/08 03:02:26;;;;;;;11.23;9.93;;;;;;;;;;5071404;28;20507;-67
2022/01/08 03:04:54;;;;;;;11.67;10.43;;;;;;;;;;5071323;28;20939;-67
2022/01/08 03:07:20;;;;;;;12.03;9.53;;;;;;;;;;5070393;28;20565;-65
2022/01/08 03:09:55;;;;;;;12.40;10.37;;;;;;;;;;5071281;28;20434;-66
2022/01/08 03:12:27;;;;;;;14.03;10.47;;;;;;;;;;5070975;28;20481;-66
2022/01/08 03:14:53;;;;;;;14.40;10.43;;;;;;;;;;5070800;28;20454;-66
2022/01/08 03:17:19;;;;;;;10.83;9.60;;;;;;;;;;5071334;28;20881;-66
2022/01/08 03:19:45;;;;;;;11.90;10.70;;;;;;;;;;5073857;28;20218;-67
2022/01/08 03:22:12;;;;;;;12.90;9.90;;;;;;;;;;5074694;28;20676;-66
2022/01/08 03:24:39;;;;;;;12.80;11.07;;;;;;;;;;5074292;28;20430;-66
2022/01/08 03:27:05;;;;;;;13.20;11.00;;;;;;;;;;5074911;28;20536;-67
2022/01/08 03:29:32;;;;;;;12.80;10.40;;;;;;;;;;5074730;28;20832;-66
2022/01/08 03:31:59;;;;;;;15.27;11.27;;;;;;;;;;5074445;28;21115;-66
2022/01/08 03:34:25;;;;;;;13.97;11.47;;;;;;;;;;5074667;28;20462;-66
2022/01/08 03:36:51;;;;;;;15.43;11.27;;;;;;;;;;5074338;28;20438;-66
2022/01/08 03:39:18;;;;;;;14.87;11.87;;;;;;;;;;5074478;28;20441;-66
2022/01/08 03:41:45;;;;;;;13.67;11.20;;;;;;;;;;5074302;28;20200;-66
2022/01/08 03:44:11;;;;;;;14.17;11.37;;;;;;;;;;5074421;28;20952;-66
2022/01/08 03:46:38;;;;;;;13.37;11.07;;;;;;;;;;5074336;28;20476;-65
2022/01/08 03:51:31;;;;;;;15.33;12.37;;;;;;;;;;5074205;28;20442;-67
2022/01/08 03:53:57;;;;;;;15.77;11.70;;;;;;;;;;5073983;28;20549;-67
2022/01/08 03:56:23;;;;;;;16.23;12.10;;;;;;;;;;5074019;28;20525;-66
2022/01/08 03:58:49;;;;;;;14.83;11.77;;;;;;;;;;5074102;28;20219;-66
2022/01/08 04:01:15;;;;;;;17.43;12.40;;;;;;;;;;5074182;28;20971;-66
2022/01/08 04:03:43;;;;;;;13.43;11.67;;;;;;;;;;5074012;28;20196;-66
2022/01/08 04:06:09;;;;;;;16.20;12.73;;;;;;;;;;5073906;28;20209;-67
2022/01/08 04:08:35;;;;;;;14.70;12.67;;;;;;;;;;5073853;28;20418;-67
2022/01/08 04:11:02;;;;;;;16.13;12.23;;;;;;;;;;5073693;28;20507;-66
2022/01/08 04:13:31;;;;;;;14.93;12.77;;;;;;;;;;5073747;28;20231;-66
2022/01/08 04:16:06;;;;;;;13.27;11.63;;;;;;;;;;5073656;28;20438;-65
2022/01/08 04:18:32;;;;;;;14.37;11.33;;;;;;;;;;5073925;28;20444;-66
2022/01/08 04:23:26;;;;;;;16.60;12.90;;;;;;;;;;5073610;28;20447;-66
2022/01/08 04:25:52;;;;;;;16.03;11.90;;;;;;;;;;5073317;28;20448;-66
2022/01/08 04:28:18;;;;;;;17.17;12.23;;;;;;;;;;5073640;28;20434;-67
2022/01/08 04:30:45;;;;;;;14.83;12.20;;;;;;;;;;5073376;28;20227;-66
2022/01/08 04:33:11;;;;;;;14.70;13.07;;;;;;;;;;5073169;28;20954;-66
2022/01/08 04:35:38;;;;;;;16.17;12.13;;;;;;;;;;5073183;28;20449;-66
2022/01/08 04:38:05;;;;;;;16.30;13.27;;;;;;;;;;5073308;28;20482;-66
2022/01/08 04:40:32;;;;;;;17.17;13.17;;;;;;;;;;5073135;28;20429;-66
2022/01/08 04:42:59;;;;;;;15.07;13.07;;;;;;;;;;5073059;28;20434;-65
2022/01/08 04:45:28;;;;;;;17.77;13.33;;;;;;;;;;5072950;28;20924;-65
2022/01/08 04:47:54;;;;;;;16.47;12.77;;;;;;;;;;5072899;28;20480;-66
2022/01/08 04:50:20;;;;;;;14.67;13.10;;;;;;;;;;5073093;28;20430;-66
2022/01/08 04:52:46;;;;;;;15.07;13.47;;;;;;;;;;5072642;28;20777;-66
2022/01/08 04:55:14;;;;;;;15.43;13.23;;;;;;;;;;5073023;28;20195;-66
2022/01/08 04:57:39;;;;;;;18.87;13.80;;;;;;;;;;5072889;28;20274;-65
2022/01/08 05:00:06;;;;;;;19.23;13.47;;;;;;;;;;5072865;28;20442;-67
2022/01/08 05:02:32;;;;;;;17.80;14.13;;;;;;;;;;5072899;28;20326;-66
2022/01/08 05:05:02;;;;;;;17.90;14.60;;;;;;;;;;5072835;28;20939;-66
2022/01/08 05:07:28;;;;;;;18.93;13.93;;;;;;;;;;5072836;28;20245;-67
2022/01/08 05:09:54;;;;;;;20.03;14.33;;;;;;;;;;5072605;28;20441;-67
2022/01/08 05:12:21;;;;;;;18.60;14.97;;;;;;;;;;5072237;28;20239;-66
2022/01/08 05:14:48;;;;;;;19.23;15.17;;;;;;;;;;5072657;28;20287;-66
2022/01/08 05:17:14;;;;;;;18.93;14.83;;;;;;;;;;5072470;28;20517;-66
2022/01/08 05:19:50;;;;;;;18.20;15.10;;;;;;;;;;5072348;28;20774;-67
2022/01/08 05:22:31;;;;;;;19.00;14.93;;;;;;;;;;5072751;28;20565;-67
2022/01/08 05:24:58;;;;;;;22.07;15.97;;;;;;;;;;5072165;28;20429;-65
2022/01/08 05:27:25;;;;;;;19.40;15.03;;;;;;;;;;5072296;28;20867;-66
2022/01/08 05:29:52;;;;;;;17.20;15.30;;;;;;;;;;5072255;28;20468;-66
2022/01/08 05:32:18;;;;;;;21.33;16.67;;;;;;;;;;5072311;28;20500;-65
2022/01/08 05:34:45;;;;;;;18.33;15.53;;;;;;;;;;5072374;28;20478;-69
2022/01/08 05:37:11;;;;;;;18.20;15.57;;;;;;;;;;5071999;28;20533;-68
2022/01/08 05:39:37;;;;;;;21.40;15.97;;;;;;;;;;5072079;28;20445;-67
2022/01/08 05:42:03;;;;;;;19.33;15.43;;;;;;;;;;5071824;28;20429;-69
2022/01/08 05:44:31;;;;;;;19.77;15.97;;;;;;;;;;5072134;28;20438;-68
2022/01/08 05:46:57;;;;;;;19.67;16.47;;;;;;;;;;5071949;28;20800;-68
2022/01/08 05:49:23;;;;;;;21.43;16.47;;;;;;;;;;5071951;28;20805;-67
2022/01/08 05:51:49;;;;;;;19.03;16.17;;;;;;;;;;5071749;28;20521;-69
2022/01/08 05:54:15;;;;;;;20.93;16.00;;;;;;;;;;5071943;28;20224;-68
2022/01/08 05:56:41;;;;;;;21.30;17.37;;;;;;;;;;5071901;28;20195;-69
2022/01/08 05:59:07;;;;;;;24.27;17.63;;;;;;;;;;5071769;28;20647;-68
2022/01/08 06:01:34;;;;;;;27.63;16.70;;;;;;;;;;5072028;28;20196;-69
2022/01/08 06:04:00;;;;;;;22.50;16.50;;;;;;;;;;5071927;28;20444;-67
2022/01/08 06:06:26;;;;;;;21.53;17.40;;;;;;;;;;5071663;28;20850;-68
2022/01/08 06:08:52;;;;;;;19.10;16.47;;;;;;;;;;5071668;28;20438;-68
2022/01/08 06:11:18;;;;;;;21.07;16.87;;;;;;;;;;5071744;28;20665;-68
2022/01/08 06:13:44;;;;;;;21.90;17.47;;;;;;;;;;5071627;28;20561;-68
2022/01/08 06:16:13;;;;;;;23.40;17.83;;;;;;;;;;5071843;28;20203;-68
2022/01/08 06:18:41;;;;;;;20.60;17.17;;;;;;;;;;5071685;28;20437;-68
2022/01/08 06:21:07;;;;;;;21.67;17.47;;;;;;;;;;5071582;28;20438;-68
2022/01/08 06:23:33;;;;;;;23.07;17.80;;;;;;;;;;5071769;28;20430;-68
2022/01/08 06:25:59;;;;;;;21.27;17.80;;;;;;;;;;5071496;28;20253;-67
2022/01/08 06:28:25;;;;;;;23.57;17.97;;;;;;;;;;5071585;28;20430;-67
2022/01/08 06:30:52;;;;;;;27.77;18.90;;;;;;;;;;5071564;28;20618;-68
2022/01/08 06:33:19;;;;;;;23.33;17.20;;;;;;;;;;5071486;28;20231;-68
2022/01/08 06:35:46;;;;;;;23.40;18.10;;;;;;;;;;5071456;28;20473;-67
2022/01/08 06:38:12;;;;;;;20.80;17.90;;;;;;;;;;5071462;28;20445;-68
2022/01/08 06:40:39;;;;;;;20.43;17.40;;;;;;;;;;5071413;28;20469;-69
2022/01/08 06:43:05;;;;;;;24.07;18.27;;;;;;;;;;5071420;28;20223;-67
2022/01/08 06:45:31;;;;;;;22.97;18.57;;;;;;;;;;5071539;28;20442;-67
2022/01/08 06:47:57;;;;;;;22.13;18.20;;;;;;;;;;5071122;28;20450;-68
2022/01/08 06:50:23;;;;;;;22.87;18.67;;;;;;;;;;5071345;28;20192;-67
2022/01/08 06:52:50;;;;;;;25.13;18.40;;;;;;;;;;5071538;28;20478;-67
2022/01/08 06:55:16;;;;;;;24.33;19.60;;;;;;;;;;5074749;28;20449;-66
2022/01/08 06:57:43;;;;;;;24.73;18.57;;;;;;;;;;5075256;28;20444;-67
2022/01/08 07:00:10;;;;;;;23.83;18.33;;;;;;;;;;5074946;28;20507;-67
2022/01/08 07:02:36;;;;;;;26.07;19.10;;;;;;;;;;5074938;28;20868;-66
2022/01/08 07:05:02;;;;;;;27.60;19.10;;;;;;;;;;5075007;28;20465;-66
2022/01/08 07:07:28;;;;;;;23.33;18.57;;;;;;;;;;5074869;28;20206;-67
2022/01/08 07:09:55;;;;;;;22.90;17.53;;;;;;;;;;5074624;28;20677;-66
2022/01/08 07:12:21;;;;;;;27.63;18.50;;;;;;;;;;5074352;28;20481;-66
2022/01/08 07:14:47;;;;;;;23.93;18.13;;;;;;;;;;5075019;28;20436;-66
2022/01/08 07:17:13;;;;;;;23.87;18.97;;;;;;;;;;5074609;28;20940;-65
2022/01/08 07:19:39;;;;;;;26.73;19.77;;;;;;;;;;5074792;28;20196;-65
2022/01/08 07:22:05;;;;;;;22.43;18.53;;;;;;;;;;5074634;28;20611;-66
2022/01/08 07:24:31;;;;;;;24.83;18.20;;;;;;;;;;5074891;28;20517;-65
2022/01/08 07:26:59;;;;;;;23.67;18.17;;;;;;;;;;5074478;28;20533;-66
2022/01/08 07:29:25;;;;;;;26.70;19.23;;;;;;;;;;5074557;28;20438;-66
2022/01/08 07:31:50;;;;;;;26.27;18.77;;;;;;;;;;5074492;28;20464;-65
2022/01/08 07:34:16;;;;;;;25.00;18.30;;;;;;;;;;5074679;28;20200;-65
2022/01/08 07:36:42;;;;;;;25.10;18.43;;;;;;;;;;5074344;28;20203;-65
2022/01/08 07:39:08;;;;;;;25.97;18.73;;;;;;;;;;5074261;28;20203;-66
2022/01/08 07:41:34;;;;;;;27.13;19.60;;;;;;;;;;5074485;28;20430;-65
2022/01/08 07:44:02;;;;;;;26.40;19.60;;;;;;;;;;5074199;28;20903;-64
2022/01/08 07:46:28;;;;;;;25.00;19.17;;;;;;;;;;5074523;28;20209;-64
2022/01/08 07:48:54;;;;;;;29.33;19.37;;;;;;;;;;5074126;28;20433;-64
2022/01/08 07:51:20;;;;;;;24.57;19.20;;;;;;;;;;5074354;28;20453;-64
2022/01/08 07:53:46;;;;;;;27.03;20.20;;;;;;;;;;5073640;28;20706;-64
2022/01/08 07:56:12;;;;;;;26.77;18.33;;;;;;;;;;5073747;28;20442;-66
2022/01/08 07:58:38;;;;;;;31.60;20.50;;;;;;;;;;5073869;28;20491;-65
2022/01/08 08:01:05;;;;;;;25.50;19.27;;;;;;;;;;5073931;28;20430;-65
2022/01/08 08:03:31;;;;;;;26.47;18.27;;;;;;;;;;5074022;28;20450;-65
2022/01/08 08:05:57;;;;;;;24.10;18.57;;;;;;;;;;5073340;28;20438;-65
2022/01/08 08:08:23;;;;;;;24.23;17.93;;;;;;;;;;5073836;28;20442;-64
2022/01/08 08:10:50;;;;;;;30.17;18.60;;;;;;;;;;5073328;28;20227;-64
2022/01/08 08:13:16;;;;;;;24.93;16.93;;;;;;;;;;5073601;28;20227;-64
2022/01/08 08:15:42;;;;;;;19.90;16.03;;;;;;;;;;5073532;28;20464;-64
2022/01/08 08:18:09;;;;;;;22.10;16.20;;;;;;;;;;5073361;28;20430;-64
2022/01/08 08:20:35;;;;;;;19.33;15.23;;;;;;;;;;5073548;28;20200;-63
2022/01/08 08:23:01;;;;;;;20.90;15.07;;;;;;;;;;5073540;28;20767;-64
2022/01/08 08:25:28;;;;;;;22.40;15.67;;;;;;;;;;5073335;28;20257;-63
2022/01/08 08:27:54;;;;;;;16.77;13.77;;;;;;;;;;5073412;28;20469;-63
2022/01/08 08:30:21;;;;;;;19.63;14.17;;;;;;;;;;5073270;28;20442;-64
2022/01/08 08:32:47;;;;;;;15.30;12.93;;;;;;;;;;5073075;28;21000;-65
2022/01/08 08:35:15;;;;;;;16.30;13.53;;;;;;;;;;5073024;28;20446;-64
2022/01/08 08:37:41;;;;;;;18.63;13.73;;;;;;;;;;5073194;28;20716;-64
2022/01/08 08:40:08;;;;;;;16.07;13.47;;;;;;;;;;5072755;28;20444;-66
2022/01/08 08:42:34;;;;;;;16.00;13.63;;;;;;;;;;5073109;28;20432;-65
2022/01/08 08:45:01;;;;;;;17.90;14.23;;;;;;;;;;5072848;28;20521;-66
2022/01/08 08:47:27;;;;;;;21.03;14.80;;;;;;;;;;5072642;28;20448;-65
2022/01/08 08:49:53;;;;;;;17.57;14.50;;;;;;;;;;5072885;28;20827;-65
2022/01/08 08:52:21;;;;;;;16.57;13.73;;;;;;;;;;5072829;28;20219;-66
2022/01/08 08:54:47;;;;;;;20.53;14.97;;;;;;;;;;5072893;28;20469;-67
2022/01/08 08:57:13;;;;;;;17.97;13.63;;;;;;;;;;5072708;28;20446;-63
2022/01/08 08:59:39;;;;;;;20.93;14.90;;;;;;;;;;5072957;28;20245;-62
2022/01/08 09:02:05;;;;;;;18.73;13.37;;;;;;;;;;5072703;28;20446;-62
2022/01/08 09:04:31;;;;;;;15.50;12.17;;;;;;;;;;5073150;28;20227;-64
2022/01/08 09:06:57;;;;;;;12.13;10.87;;;;;;;;;;5072660;28;20461;-65
2022/01/08 09:09:25;;;;;;;13.93;10.10;;;;;;;;;;5072463;28;20607;-64
2022/01/08 09:11:51;;;;;;;13.90;10.30;;;;;;;;;;5072245;28;20474;-64
2022/01/08 09:14:21;;;;;;;12.93;9.97;;;;;;;;;;5072718;28;20521;-62
2022/01/08 09:16:48;;;;;;;11.13;9.67;;;;;;;;;;5072021;28;20623;-61
2022/01/08 09:19:14;;;;;;;11.77;9.60;;;;;;;;;;5072045;28;20245;-61
2022/01/08 09:21:40;;;;;;;14.33;9.43;;;;;;;;;;5072150;28;20299;-63
2022/01/08 09:24:07;;;;;;;11.23;8.53;;;;;;;;;;5071930;28;20622;-61
2022/01/08 09:26:34;;;;;;;11.93;9.40;;;;;;;;;;5071776;28;20203;-62
2022/01/08 09:29:00;;;;;;;10.47;9.10;;;;;;;;;;5072196;28;20202;-61
2022/01/08 09:31:26;;;;;;;12.60;8.67;;;;;;;;;;5072137;28;20200;-63
2022/01/08 09:33:52;;;;;;;10.47;8.60;;;;;;;;;;5071982;28;20223;-61
2022/01/08 09:36:18;;;;;;;10.07;9.00;;;;;;;;;;5071973;28;20692;-62
2022/01/08 09:38:44;;;;;;;12.63;8.50;;;;;;;;;;5072133;28;20256;-62
2022/01/08 09:41:10;;;;;;;11.63;9.23;;;;;;;;;;5072001;28;20199;-63
2022/01/08 09:43:37;;;;;;;10.30;9.20;;;;;;;;;;5071508;28;20624;-60
2022/01/08 09:46:03;;;;;;;11.70;8.70;;;;;;;;;;5071779;28;20208;-61
2022/01/08 09:48:29;;;;;;;11.57;8.00;;;;;;;;;;5071921;28;20294;-60
2022/01/08 09:50:55;;;;;;;11.07;8.10;;;;;;;;;;5071722;28;20200;-61
2022/01/08 09:53:22;;;;;;;11.13;8.97;;;;;;;;;;5071379;28;20311;-60
2022/01/08 09:55:48;;;;;;;11.33;8.17;;;;;;;;;;5071839;28;20208;-61
2022/01/08 09:58:14;;;;;;;11.83;8.23;;;;;;;;;;5071740;28;20191;-61
2022/01/08 10:00:42;;;;;;;10.63;7.87;;;;;;;;;;5071641;28;20253;-62
2022/01/08 10:03:15;;;;;;;8.40;7.10;;;;;;;;;;5071504;28;20253;-61
2022/01/08 10:05:45;;;;;;;9.67;7.50;;;;;;;;;;5071617;28;20219;-64
2022/01/08 10:08:13;;;;;;;10.20;7.83;;;;;;;;;;5071361;28;20226;-67
2022/01/08 10:10:39;;;;;;;9.27;7.27;;;;;;;;;;5071479;28;20314;-60
2022/01/08 10:13:05;;;;;;;10.33;7.83;;;;;;;;;;5071448;28;20310;-67
2022/01/08 10:18:24;;;;;;;10.50;7.30;;;;;;;;;;5071329;28;20195;-67
2022/01/08 10:20:50;;;;;;;8.90;7.27;;;;;;;;;;5071539;28;20203;-65
2022/01/08 10:23:17;;;;;;;10.67;8.13;;;;;;;;;;5071220;28;20191;-65
2022/01/08 10:25:54;;;;;;;12.03;7.37;;;;;;;;;;5071512;28;20199;-65
2022/01/08 10:28:31;;;;;;;10.67;8.50;;;;;;;;;;5073621;28;20233;-64
2022/01/08 10:31:05;;;;;;;9.23;8.10;;;;;;;;;;5075835;28;20218;-65
2022/01/08 10:33:33;;;;;;;10.37;8.30;;;;;;;;;;5075697;28;20232;-63
2022/01/08 10:35:59;;;;;;;9.77;8.70;;;;;;;;;;5075794;28;20211;-65
2022/01/08 10:38:27;;;;;;;9.43;8.27;;;;;;;;;;5075500;28;20200;-64
2022/01/08 10:40:53;;;;;;;9.47;8.33;;;;;;;;;;5075580;28;20214;-64
2022/01/08 10:43:20;;;;;;;9.70;8.40;;;;;;;;;;5075434;28;20665;-64
2022/01/08 10:45:46;;;;;;;13.00;8.37;;;;;;;;;;5075563;28;20653;-64
2022/01/08 10:48:12;;;;;;;11.03;8.50;;;;;;;;;;5072777;28;20209;-65
2022/01/08 10:50:39;;;;;;;11.60;8.63;;;;;;;;;;5074766;28;20256;-63
2022/01/08 10:53:05;;;;;;;13.53;9.13;;;;;;;;;;5074842;28;20238;-64
2022/01/08 10:55:32;;;;;;;10.37;8.47;;;;;;;;;;5074934;28;20566;-65
2022/01/08 10:57:58;;;;;;;11.33;9.00;;;;;;;;;;5074698;28;20195;-64
2022/01/08 11:00:30;;;;;;;12.00;9.40;;;;;;;;;;5074421;28;20601;-64
2022/01/08 11:02:56;;;;;;;12.27;9.30;;;;;;;;;;5074711;28;20241;-65
2022/01/08 11:05:22;;;;;;;12.60;8.50;;;;;;;;;;5074505;28;20199;-65
2022/01/08 11:07:50;;;;;;;11.53;8.83;;;;;;;;;;5074777;28;20717;-65
2022/01/08 11:10:18;;;;;;;15.33;10.13;;;;;;;;;;5074380;28;20677;-64
2022/01/08 11:12:46;;;;;;;13.30;10.13;;;;;;;;;;5074518;28;20281;-65
2022/01/08 11:15:25;;;;;;;10.50;9.27;;;;;;;;;;5074473;28;20195;-66
2022/01/08 11:17:52;;;;;;;13.00;10.33;;;;;;;;;;5074512;28;20202;-65
2022/01/08 11:20:19;;;;;;;11.83;9.83;;;;;;;;;;5074736;28;20202;-66
2022/01/08 11:22:46;;;;;;;12.87;10.10;;;;;;;;;;5074473;28;20192;-64
2022/01/08 11:25:14;;;;;;;11.37;9.83;;;;;;;;;;5074190;28;20632;-65
2022/01/08 11:27:44;;;;;;;11.63;9.43;;;;;;;;;;5074321;28;20239;-67
2022/01/08 11:30:12;;;;;;;12.00;9.07;;;;;;;;;;5074193;28;20294;-65
2022/01/08 11:32:39;;;;;;;13.33;9.60;;;;;;;;;;5074045;28;20227;-66
2022/01/08 11:35:07;;;;;;;12.07;9.97;;;;;;;;;;5074238;28;20191;-65
2022/01/08 11:37:33;;;;;;;12.57;8.63;;;;;;;;;;5074140;28;20207;-65
2022/01/08 11:40:03;;;;;;;17.53;9.80;;;;;;;;;;5073234;28;20253;-65
2022/01/08 11:42:32;;;;;;;11.83;9.37;;;;;;;;;;5073795;28;20219;-65
2022/01/08 11:45:00;;;;;;;12.03;9.33;;;;;;;;;;5073878;28;20196;-65
2022/01/08 11:47:29;;;;;;;13.20;10.13;;;;;;;;;;5073768;28;20204;-65
2022/01/08 11:49:55;;;;;;;16.60;10.23;;;;;;;;;;5073745;28;20710;-66
2022/01/08 11:52:21;;;;;;;14.93;9.90;;;;;;;;;;5073701;28;20192;-66
2022/01/08 11:54:48;;;;;;;18.07;11.03;;;;;;;;;;5073744;28;20215;-65
2022/01/08 11:57:16;;;;;;;12.40;10.27;;;;;;;;;;5073560;28;20626;-66
2022/01/08 11:59:45;;;;;;;13.80;10.73;;;;;;;;;;5073855;28;20278;-66
2022/01/08 12:02:12;;;;;;;17.43;12.13;;;;;;;;;;5074022;28;20199;-66
2022/01/08 12:04:40;;;;;;;16.47;11.07;;;;;;;;;;5074056;28;20207;-66
2022/01/08 12:07:21;;;;;;;11.90;10.13;;;;;;;;;;5073778;28;20275;-67
2022/01/08 12:09:47;;;;;;;12.83;9.47;;;;;;;;;;5073595;28;20247;-66
2022/01/08 12:12:13;;;;;;;16.57;10.73;;;;;;;;;;5073515;28;20239;-66
2022/01/08 12:14:47;;;;;;;12.47;9.33;;;;;;;;;;5073676;28;20227;-66
2022/01/08 12:17:14;;;;;;;12.23;9.17;;;;;;;;;;5073695;28;20204;-67
2022/01/08 12:19:44;;;;;;;14.40;10.37;;;;;;;;;;5073651;28;20199;-68
2022/01/08 12:22:28;;;;;;;13.27;10.57;;;;;;;;;;5073744;28;20253;-67
2022/01/08 12:24:58;;;;;;;12.73;10.37;;;;;;;;;;5073618;28;20196;-67
2022/01/08 12:27:37;;;;;;;14.93;10.63;;;;;;;;;;5073490;28;20195;-68
2022/01/08 12:30:06;;;;;;;17.53;10.80;;;;;;;;;;5073503;28;20441;-67
2022/01/08 12:35:28;;;;;;;19.50;12.83;;;;;;;;;;5073780;28;20426;-67
2022/01/08 12:37:54;;;;;;;16.60;12.90;;;;;;;;;;5073315;28;20418;-68
2022/01/08 12:40:34;;;;;;;21.27;14.30;;;;;;;;;;5073292;28;20841;-68
2022/01/08 12:43:15;;;;;;;18.30;14.13;;;;;;;;;;5073339;28;20437;-67
2022/01/08 12:45:43;;;;;;;19.33;14.87;;;;;;;;;;5073115;28;20425;-66
2022/01/08 12:48:10;;;;;;;22.93;16.00;;;;;;;;;;5072947;28;20532;-68
2022/01/08 12:50:36;;;;;;;24.93;17.70;;;;;;;;;;5072550;28;20472;-68
2022/01/08 12:53:30;;;;;;;23.70;17.47;;;;;;;;;;5072200;28;20564;-68
2022/01/08 12:56:08;;;;;;;28.00;17.67;;;;;;;;;;5072631;28;20931;-67
2022/01/08 12:58:35;;;;;;;25.23;17.33;;;;;;;;;;5072458;28;20438;-68
2022/01/08 13:01:04;;;;;;;24.30;17.20;;;;;;;;;;5072574;28;20438;-69
2022/01/08 13:03:31;;;;;;;26.57;16.43;;;;;;;;;;5072674;28;20533;-67
2022/01/08 13:05:58;;;;;;;27.17;16.80;;;;;;;;;;5072581;28;20942;-69
2022/01/08 13:08:25;;;;;;;23.07;16.67;;;;;;;;;;5072272;28;20426;-68
2022/01/08 13:10:56;;;;;;;25.67;18.00;;;;;;;;;;5072280;28;20485;-68
2022/01/08 13:13:22;;;;;;;20.00;16.00;;;;;;;;;;5072305;28;20547;-67
2022/01/08 13:15:48;;;;;;;25.87;17.30;;;;;;;;;;5072706;28;20503;-67
2022/01/08 13:18:20;;;;;;;22.17;16.90;;;;;;;;;;5072293;28;20932;-67
2022/01/08 13:20:46;;;;;;;28.77;18.03;;;;;;;;;;5072383;28;20257;-68
2022/01/08 13:23:12;;;;;;;24.37;18.60;;;;;;;;;;5072421;28;20430;-68
2022/01/08 13:25:38;;;;;;;26.27;18.57;;;;;;;;;;5072140;28;20452;-68
2022/01/08 13:28:04;;;;;;;27.43;18.60;;;;;;;;;;5071938;28;20437;-67
2022/01/08 13:30:30;;;;;;;29.80;19.87;;;;;;;;;;5072082;28;20192;-70
2022/01/08 13:32:59;;;;;;;27.50;18.83;;;;;;;;;;5071742;28;20474;-68
2022/01/08 13:35:26;;;;;;;25.97;18.57;;;;;;;;;;5071726;28;20464;-68
2022/01/08 13:37:52;;;;;;;26.30;17.27;;;;;;;;;;5072026;28;20853;-67
2022/01/08 13:40:18;;;;;;;26.87;17.60;;;;;;;;;;5072176;28;20442;-69
2022/01/08 13:42:44;;;;;;;24.73;16.47;;;;;;;;;;5071904;28;20188;-68
2022/01/08 13:45:11;;;;;;;24.60;16.90;;;;;;;;;;5071877;28;20791;-70
2022/01/08 13:47:39;;;;;;;24.43;15.87;;;;;;;;;;5071789;28;20573;-68
2022/01/08 13:50:11;;;;;;;24.33;14.50;;;;;;;;;;5071976;28;20523;-66
2022/01/08 13:52:41;;;;;;;19.97;14.03;;;;;;;;;;5071585;28;20843;-67
2022/01/08 13:55:08;;;;;;;19.83;15.27;;;;;;;;;;5071757;28;20809;-68
2022/01/08 13:57:34;;;;;;;20.83;15.03;;;;;;;;;;5071705;28;20445;-70
2022/01/08 14:00:10;;;;;;;19.37;13.80;;;;;;;;;;5071507;28;20438;-68
2022/01/08 14:02:35;;;;;;;17.70;12.37;;;;;;;;;;5071192;28;20908;-70
2022/01/08 14:05:02;;;;;;;20.57;13.20;;;;;;;;;;5071721;28;20432;-67
2022/01/08 14:07:34;;;;;;;18.90;12.33;;;;;;;;;;5071363;28;20601;-69
2022/01/08 14:10:02;;;;;;;20.47;12.67;;;;;;;;;;5071713;28;20516;-68
2022/01/08 14:12:28;;;;;;;24.63;12.03;;;;;;;;;;5071450;28;20838;-68
2022/01/08 14:14:55;;;;;;;17.33;11.00;;;;;;;;;;5071571;28;20469;-68
2022/01/08 14:17:21;;;;;;;15.50;10.57;;;;;;;;;;5071692;28;20460;-69
2022/01/08 14:19:49;;;;;;;15.60;11.47;;;;;;;;;;5071745;28;20944;-69
2022/01/08 14:22:22;;;;;;;15.57;10.73;;;;;;;;;;5071683;28;20931;-67
2022/01/08 14:24:50;;;;;;;17.67;10.87;;;;;;;;;;5071894;28;20491;-68
2022/01/08 14:27:20;;;;;;;18.47;11.70;;;;;;;;;;5071751;28;20465;-67
2022/01/08 14:29:46;;;;;;;15.40;10.77;;;;;;;;;;5071485;28;20524;-67
2022/01/08 14:32:13;;;;;;;15.17;9.77;;;;;;;;;;5071680;28;20513;-67
2022/01/08 14:34:43;;;;;;;15.17;10.27;;;;;;;;;;5071313;28;20482;-66
2022/01/08 14:37:14;;;;;;;18.03;10.97;;;;;;;;;;5071632;28;20463;-68
2022/01/08 14:39:40;;;;;;;15.13;10.60;;;;;;;;;;5071291;28;20517;-67
2022/01/08 14:42:07;;;;;;;16.30;10.70;;;;;;;;;;5071330;28;20426;-67
2022/01/08 14:44:36;;;;;;;19.70;10.23;;;;;;;;;;5071143;28;20993;-69
2022/01/08 14:47:02;;;;;;;14.60;10.77;;;;;;;;;;5071304;28;20437;-66
2022/01/08 14:49:28;;;;;;;17.10;10.27;;;;;;;;;;5069389;28;20450;-68
2022/01/08 14:51:54;;;;;;;15.73;10.33;;;;;;;;;;5069442;28;20426;-68